aviador You're here:

YWHA Decoded Metar

WHYALLA AIRPORT in _UNIDENTIFIED
Report Time2017-09-20 12:00:00
UTC Time2017-09-20 12:45:13
Flight Rules vfr VFR
Wind360° at 11 kt
W.Decomp.*RWY 35: 11.0 kt HW 0.6 kt RCW
RWY 05: 6.0 kt HW 9.2 kt LCW
Visibility9999 m
Phenomena:N/A
Clouds:N/A
Expected CloudBase > 11,200 ft AGL from Temp-Dew spread
CeilingNone
Temp20°C (ISA +5)
Dew Point-8°C (14% RH)
AAT13.1°C
QNH1012 hPa
Density Alt725 ft
Elevation43 ft
Report Wrong Elevation
Raw Report
YWHA 201200Z AUTO 36011KT 9999 // NCD 20/M08 Q1012=

Extra information for YWHA:More info

Metar Taf Metar & Taf Last 4 Metars F.Rules Stats Wind Profile Meteogram Temp Stats Airport Information Weather charts Add Link Nearby VenuesMetar ALERT Operation Metar Decoded Social comments